createdAt,value
2023-02-06T00:03:20.507Z,64.24
2023-02-06T00:08:23.063Z,64.48
2023-02-06T00:13:25.409Z,63.83
2023-02-06T00:18:28.314Z,64.03
2023-02-06T00:23:30.753Z,63.39
2023-02-06T00:28:33.235Z,63.41
2023-02-06T00:33:36.145Z,63.65
2023-02-06T00:38:38.873Z,63.83
2023-02-06T00:43:42.272Z,63.50
2023-02-06T00:48:44.758Z,63.93
2023-02-06T00:53:49.030Z,63.90
2023-02-06T00:58:52.594Z,63.90
2023-02-06T01:03:55.173Z,63.97
2023-02-06T01:08:57.621Z,63.58
2023-02-06T01:14:04.317Z,63.25
2023-02-06T01:19:06.694Z,63.78
2023-02-06T01:24:09.173Z,63.76
2023-02-06T01:29:11.617Z,63.79
2023-02-06T01:34:15.926Z,63.40
2023-02-06T01:39:18.364Z,63.80
2023-02-06T01:44:23.776Z,63.89
2023-02-06T01:49:36.213Z,63.78
2023-02-06T01:54:38.706Z,64.31
2023-02-06T01:59:45.743Z,63.48
2023-02-06T02:04:48.903Z,63.38
2023-02-06T02:09:51.408Z,62.68
2023-02-06T02:14:56.969Z,63.34
2023-02-06T02:20:18.356Z,63.31
2023-02-06T02:25:45.469Z,63.26
2023-02-06T02:31:08.774Z,62.50
2023-02-06T02:36:18.659Z,62.55
2023-02-06T02:41:37.927Z,63.11
2023-02-06T02:46:47.173Z,62.65
2023-02-06T02:51:51.409Z,61.95
2023-02-06T02:57:00.445Z,61.92
2023-02-06T03:02:11.816Z,62.38
2023-02-06T03:07:34.377Z,62.19
2023-02-06T03:12:46.564Z,61.95
2023-02-06T03:18:00.555Z,61.76
2023-02-06T03:23:04.618Z,62.25
2023-02-06T03:28:14.382Z,61.53
2023-02-06T03:33:20.030Z,61.78
2023-02-06T03:38:25.032Z,61.75
2023-02-06T03:43:30.044Z,61.98
2023-02-06T03:48:39.218Z,61.50
2023-02-06T03:53:45.836Z,61.85
2023-02-06T03:58:48.332Z,62.03
2023-02-06T04:03:52.158Z,62.01
2023-02-06T04:08:54.758Z,61.64
2023-02-06T04:13:57.175Z,62.17
2023-02-06T04:18:59.687Z,62.04
2023-02-06T04:24:02.129Z,61.81
2023-02-06T04:29:04.571Z,62.09
2023-02-06T04:34:07.333Z,62.07
2023-02-06T04:39:10.172Z,62.24
2023-02-06T04:44:12.712Z,62.07
2023-02-06T04:49:15.958Z,62.08
2023-02-06T04:54:18.721Z,62.23
2023-02-06T04:59:21.234Z,61.77
2023-02-06T05:04:23.636Z,62.34
2023-02-06T05:09:26.162Z,62.17
2023-02-06T05:14:32.385Z,62.08
2023-02-06T05:19:35.217Z,61.98
2023-02-06T05:24:43.163Z,62.11
2023-02-06T05:29:46.193Z,62.07
2023-02-06T05:34:48.873Z,62.09
2023-02-06T05:39:51.619Z,61.99
2023-02-06T05:44:54.179Z,61.63
2023-02-06T05:49:56.668Z,61.84
2023-02-06T05:54:59.188Z,61.95
2023-02-06T06:00:02.608Z,61.92
2023-02-06T06:05:14.085Z,61.18
2023-02-06T06:10:16.804Z,61.02
2023-02-06T06:15:19.309Z,61.47
2023-02-06T06:20:21.937Z,60.50
2023-02-06T06:25:24.479Z,60.77
2023-02-06T06:30:27.208Z,60.43
2023-02-06T06:35:29.892Z,60.20
2023-02-06T06:40:32.362Z,59.65
2023-02-06T06:45:37.684Z,59.55
2023-02-06T06:50:40.367Z,58.82
2023-02-06T06:55:42.906Z,59.28
2023-02-06T07:00:45.875Z,58.53
2023-02-06T07:05:48.942Z,58.11
2023-02-06T07:10:51.449Z,57.69
2023-02-06T07:15:54.214Z,57.16
2023-02-06T07:20:56.717Z,57.12
2023-02-06T07:26:02.636Z,56.87
2023-02-06T07:31:07.385Z,55.95
2023-02-06T07:36:14.903Z,55.55
2023-02-06T07:41:18.375Z,55.24
2023-02-06T07:46:21.328Z,54.88
2023-02-06T07:51:23.960Z,54.25
2023-02-06T07:56:26.502Z,53.93
2023-02-06T08:01:29.461Z,53.36
2023-02-06T08:06:32.100Z,52.95
2023-02-06T08:11:36.121Z,52.48
2023-02-06T08:16:39.740Z,51.96
2023-02-06T08:21:42.668Z,51.89
2023-02-06T08:26:45.211Z,52.21
2023-02-06T08:31:47.688Z,52.09
2023-02-06T08:36:50.181Z,51.96
2023-02-06T08:41:55.616Z,51.53
2023-02-06T08:47:09.190Z,51.23
2023-02-06T08:52:12.676Z,51.04
2023-02-06T08:57:15.206Z,50.78
2023-02-06T09:02:17.934Z,50.83
2023-02-06T09:07:22.117Z,51.10
2023-02-06T09:12:24.963Z,51.09
2023-02-06T09:17:31.716Z,50.83
2023-02-06T09:22:36.160Z,50.32
2023-02-06T09:27:38.722Z,50.34
2023-02-06T09:32:43.410Z,50.31
2023-02-06T09:37:45.981Z,50.03
2023-02-06T09:42:48.905Z,50.24
2023-02-06T09:48:04.202Z,50.40
2023-02-06T09:54:05.873Z,50.25
2023-02-06T09:59:22.966Z,49.38
2023-02-06T10:04:34.546Z,49.38
2023-02-06T10:09:42.015Z,49.46
2023-02-06T10:15:12.912Z,49.00
2023-02-06T10:20:21.758Z,49.81
2023-02-06T10:25:35.480Z,49.44
2023-02-06T10:30:52.668Z,48.96
2023-02-06T10:35:56.063Z,49.73
2023-02-06T10:41:23.188Z,49.02
2023-02-06T10:46:48.322Z,49.49
2023-02-06T10:52:01.661Z,49.26
2023-02-06T10:57:12.529Z,49.82
2023-02-06T11:02:21.027Z,51.00
2023-02-06T11:07:45.945Z,51.09
2023-02-06T11:13:09.758Z,50.96
2023-02-06T11:18:19.509Z,51.03
2023-02-06T11:23:23.712Z,51.42
2023-02-06T11:28:27.364Z,51.42
2023-02-06T11:33:47.773Z,51.02
2023-02-06T11:38:59.048Z,51.69
2023-02-06T11:44:06.762Z,51.75
2023-02-06T11:49:29.285Z,52.07
2023-02-06T11:54:36.196Z,51.86
2023-02-06T11:59:51.050Z,52.16
2023-02-06T12:05:01.959Z,52.32
2023-02-06T12:10:16.560Z,52.91
2023-02-06T12:15:45.277Z,52.63
2023-02-06T12:20:53.100Z,52.37
2023-02-06T12:26:00.197Z,52.75
2023-02-06T12:31:10.666Z,53.45
2023-02-06T12:36:17.734Z,53.82
2023-02-06T12:41:43.712Z,53.87
2023-02-06T12:46:51.957Z,54.16
2023-02-06T12:52:05.758Z,54.81
2023-02-06T12:57:22.552Z,55.05
2023-02-06T13:02:36.828Z,55.10
2023-02-06T13:07:49.363Z,55.48
2023-02-06T13:12:59.487Z,55.99
2023-02-06T13:18:01.934Z,56.12
2023-02-06T13:23:23.792Z,55.96
2023-02-06T13:28:26.134Z,56.35
2023-02-06T13:33:42.527Z,57.51
2023-02-06T13:38:46.213Z,57.56
2023-02-06T13:43:59.659Z,57.42
2023-02-06T13:49:32.485Z,57.41
2023-02-06T13:54:48.201Z,57.86
2023-02-06T14:00:15.927Z,57.68
2023-02-06T14:05:35.362Z,58.30
2023-02-06T14:11:44.458Z,57.80
2023-02-06T14:17:06.155Z,57.87
2023-02-06T14:22:17.421Z,58.01
2023-02-06T14:27:53.879Z,58.87
2023-02-06T14:33:20.097Z,59.38
2023-02-06T14:39:13.993Z,59.31
2023-02-06T14:44:22.882Z,59.23
2023-02-06T14:49:34.074Z,59.61
2023-02-06T14:54:40.892Z,59.73
2023-02-06T15:00:01.834Z,59.87
2023-02-06T15:05:07.335Z,60.56
2023-02-06T15:10:16.230Z,60.83
2023-02-06T15:15:22.259Z,60.20
2023-02-06T15:20:28.671Z,60.70
2023-02-06T15:25:48.985Z,60.90
2023-02-06T15:30:56.502Z,61.13
2023-02-06T15:36:03.025Z,60.55
2023-02-06T15:41:07.617Z,60.73
2023-02-06T15:46:11.209Z,60.33
2023-02-06T15:51:28.521Z,61.14
2023-02-06T15:56:34.848Z,60.45
2023-02-06T16:01:42.576Z,60.50
2023-02-06T16:06:47.017Z,60.18
2023-02-06T16:11:53.779Z,60.24
2023-02-06T16:16:59.502Z,60.88
2023-02-06T16:22:19.288Z,61.14
2023-02-06T16:27:27.488Z,60.63
2023-02-06T16:32:32.017Z,60.67
2023-02-06T16:37:34.354Z,60.51
2023-02-06T16:42:39.404Z,60.57
2023-02-06T16:47:41.994Z,60.53
2023-02-06T16:52:53.714Z,60.97
2023-02-06T16:57:59.689Z,61.55
2023-02-06T17:03:02.114Z,61.39
2023-02-06T17:08:15.368Z,61.65
2023-02-06T17:13:23.499Z,61.86
2023-02-06T17:18:26.063Z,61.88
2023-02-06T17:23:28.728Z,61.58
2023-02-06T17:28:31.244Z,61.77
2023-02-06T17:33:34.052Z,62.24
2023-02-06T17:38:36.546Z,62.39
2023-02-06T17:43:39.102Z,62.50
2023-02-06T17:48:43.460Z,62.90
2023-02-06T17:53:46.335Z,63.34
2023-02-06T17:58:48.916Z,63.67
2023-02-06T18:03:51.393Z,63.45
2023-02-06T18:08:54.111Z,63.45
2023-02-06T18:13:56.914Z,63.13
2023-02-06T18:18:59.629Z,63.86
2023-02-06T18:24:02.856Z,63.76
2023-02-06T18:29:06.001Z,63.90
2023-02-06T18:34:08.907Z,63.70
2023-02-06T18:39:11.650Z,63.47
2023-02-06T18:44:14.146Z,63.83
2023-02-06T18:49:16.780Z,62.93
2023-02-06T18:54:19.279Z,63.10
2023-02-06T18:59:21.978Z,63.20
2023-02-06T19:04:24.628Z,63.00
2023-02-06T19:09:27.065Z,63.19
2023-02-06T19:14:29.663Z,63.05
2023-02-06T19:19:32.104Z,63.07
2023-02-06T19:24:34.665Z,62.99
2023-02-06T19:29:37.439Z,63.11
2023-02-06T19:34:41.412Z,63.36
2023-02-06T19:39:44.765Z,63.07
2023-02-06T19:44:51.013Z,62.81
2023-02-06T19:49:53.644Z,63.34
2023-02-06T19:54:56.100Z,62.63
2023-02-06T19:59:58.584Z,62.18
2023-02-06T20:05:02.660Z,63.20
2023-02-06T20:10:06.899Z,62.85
2023-02-06T20:15:09.651Z,63.24
2023-02-06T20:20:12.677Z,62.87
2023-02-06T20:25:15.355Z,63.95
2023-02-06T20:30:19.183Z,64.42
2023-02-06T20:35:21.762Z,63.49
2023-02-06T20:40:24.301Z,64.93
2023-02-06T20:45:27.168Z,64.78
2023-02-06T20:50:30.127Z,65.24
2023-02-06T20:55:33.203Z,64.99
2023-02-06T21:00:35.789Z,65.84
2023-02-06T21:05:39.576Z,65.20
2023-02-06T21:10:42.109Z,65.13
2023-02-06T21:15:51.488Z,65.24
2023-02-06T21:20:55.968Z,66.01
2023-02-06T21:25:58.372Z,64.87
2023-02-06T21:31:24.855Z,64.73
2023-02-06T21:36:29.741Z,65.48
2023-02-06T21:41:33.229Z,64.01
2023-02-06T21:46:35.774Z,64.33
2023-02-06T21:51:38.600Z,63.92
2023-02-06T21:56:41.054Z,63.57
2023-02-06T22:01:43.671Z,64.69
2023-02-06T22:06:48.166Z,63.30
2023-02-06T22:11:51.681Z,64.06
2023-02-06T22:16:54.131Z,62.95
2023-02-06T22:21:56.553Z,63.12
2023-02-06T22:26:59.000Z,63.88
2023-02-06T22:32:04.700Z,63.64
2023-02-06T22:37:07.825Z,62.60
2023-02-06T22:42:10.305Z,62.61
2023-02-06T22:47:12.864Z,63.90
2023-02-06T22:52:33.709Z,63.81
2023-02-06T22:57:37.436Z,63.49
2023-02-06T23:02:40.039Z,63.34
2023-02-06T23:07:42.474Z,62.49
2023-02-06T23:12:44.872Z,62.10
2023-02-06T23:17:49.158Z,61.96
2023-02-06T23:22:51.701Z,62.13
2023-02-06T23:27:55.060Z,62.32
2023-02-06T23:32:57.555Z,62.61
2023-02-06T23:38:00.036Z,63.03
2023-02-06T23:43:03.789Z,61.77
2023-02-06T23:48:06.274Z,62.45
2023-02-06T23:53:08.636Z,61.95
2023-02-06T23:58:11.026Z,62.48
